Time;durP1;ratioP1;P1;durP2;ratioP2;P2;SDS_P1;SDS_P2;PMS_P1;PMS_P2;Temp;Humidity;BMP_temperature;BMP_pressure;BME280_temperature;BME280_humidity;BME280_pressure;Samples;Min_cycle;Max_cycle;Signal;HPM_P1;HPM_P2
2022/02/24 00:00:23;;;;;;;8.00;4.50;;;6.00;32.10;;;;;;10404853;28;20241;-76
2022/02/24 00:05:26;;;;;;;6.07;4.57;;;5.90;31.50;;;;;;10404400;28;20247;-75
2022/02/24 00:10:31;;;;;;;5.47;3.97;;;5.80;31.80;;;;;;10403462;28;20663;-75
2022/02/24 00:15:35;;;;;;;5.70;4.97;;;5.70;32.30;;;;;;10402910;28;20276;-75
2022/02/24 00:20:43;;;;;;;4.73;4.23;;;5.70;32.20;;;;;;10401525;28;20237;-75
2022/02/24 00:25:48;;;;;;;4.20;3.80;;;5.70;32.00;;;;;;10407115;28;20352;-75
2022/02/24 00:30:52;;;;;;;5.37;4.10;;;5.70;32.00;;;;;;10406825;28;20232;-75
2022/02/24 00:35:56;;;;;;;3.73;3.40;;;5.60;32.00;;;;;;10404703;28;20272;-75
2022/02/24 00:41:01;;;;;;;5.37;3.10;;;5.50;31.90;;;;;;10402370;28;20245;-75
2022/02/24 00:46:07;;;;;;;4.90;3.70;;;5.40;32.20;;;;;;10454624;28;20720;-75
2022/02/24 00:51:13;;;;;;;4.90;3.63;;;5.40;32.40;;;;;;10454585;28;20233;-75
2022/02/24 00:56:18;;;;;;;5.97;3.90;;;5.30;32.80;;;;;;10447930;28;20228;-75
2022/02/24 01:01:24;;;;;;;8.23;3.77;;;5.40;32.80;;;;;;10448401;28;20233;-76
2022/02/24 01:06:47;;;;;;;;;;;;;;;;;;;;;
2022/02/24 01:11:59;;;;;;;6.70;3.60;;;5.30;32.60;;;;;;10446696;28;20247;-76
2022/02/24 01:17:03;;;;;;;4.90;3.60;;;5.30;33.00;;;;;;10443332;28;20225;-74
2022/02/24 01:22:07;;;;;;;4.23;3.40;;;5.20;32.60;;;;;;10459781;28;20311;-76
2022/02/24 01:27:12;;;;;;;4.93;3.50;;;5.20;32.40;;;;;;10449827;28;20261;-74
2022/02/24 01:32:17;;;;;;;3.73;3.37;;;5.10;32.60;;;;;;10448818;28;20624;-74
2022/02/24 01:37:22;;;;;;;5.73;3.53;;;5.10;32.60;;;;;;10451882;28;20292;-74
2022/02/24 01:42:29;;;;;;;4.47;3.20;;;5.10;32.60;;;;;;10453648;28;20243;-74
2022/02/24 01:47:34;;;;;;;6.60;3.90;;;5.00;32.80;;;;;;10451112;28;20224;-74
2022/02/24 01:52:40;;;;;;;4.27;3.20;;;5.00;32.60;;;;;;10449804;28;20244;-74
2022/02/24 01:57:45;;;;;;;4.30;3.50;;;4.90;33.00;;;;;;10448829;28;20232;-77
2022/02/24 02:02:49;;;;;;;3.43;2.77;;;4.80;33.10;;;;;;10447833;28;20256;-74
2022/02/24 02:07:52;;;;;;;5.30;3.70;;;4.80;33.00;;;;;;10448511;28;20235;-75
2022/02/24 02:12:58;;;;;;;5.63;3.07;;;4.80;32.90;;;;;;10448053;28;20643;-75
2022/02/24 02:18:01;;;;;;;4.17;3.23;;;4.80;33.10;;;;;;10448502;28;20828;-74
2022/02/24 02:23:07;;;;;;;3.80;3.00;;;4.70;33.10;;;;;;10443938;28;20227;-74
2022/02/24 02:28:15;;;;;;;4.70;3.10;;;4.70;33.40;;;;;;10444214;28;20328;-74
2022/02/24 02:33:23;;;;;;;3.83;2.90;;;4.70;33.20;;;;;;10449989;28;20698;-74
2022/02/24 02:38:28;;;;;;;4.40;3.03;;;4.70;33.50;;;;;;10456345;28;20840;-75
2022/02/24 02:43:32;;;;;;;3.67;2.80;;;4.70;33.30;;;;;;10426741;28;20265;-75
2022/02/24 02:48:37;;;;;;;5.60;2.80;;;4.70;33.30;;;;;;10454084;28;20227;-75
2022/02/24 02:53:48;;;;;;;6.30;2.57;;;4.70;33.30;;;;;;10454398;28;20232;-75
2022/02/24 02:58:53;;;;;;;3.47;2.57;;;4.70;33.90;;;;;;10432656;28;20251;-75
2022/02/24 03:03:57;;;;;;;6.97;3.10;;;4.70;33.40;;;;;;10450337;28;20251;-75
2022/02/24 03:09:02;;;;;;;3.63;2.97;;;4.60;33.20;;;;;;10452605;28;20701;-75
2022/02/24 03:14:06;;;;;;;4.97;2.97;;;4.50;33.50;;;;;;10452749;28;20279;-75
2022/02/24 03:19:11;;;;;;;3.63;2.80;;;4.40;33.40;;;;;;10454153;28;20355;-75
2022/02/24 03:24:16;;;;;;;4.10;2.80;;;4.30;33.60;;;;;;10450555;28;20233;-75
2022/02/24 03:29:20;;;;;;;5.00;3.07;;;4.30;33.90;;;;;;10442919;28;20239;-74
2022/02/24 03:34:23;;;;;;;3.60;2.67;;;4.20;33.70;;;;;;10451205;28;20220;-74
2022/02/24 03:39:31;;;;;;;2.97;2.67;;;4.20;33.90;;;;;;10457273;28;20228;-74
2022/02/24 03:44:34;;;;;;;2.87;2.57;;;4.20;34.00;;;;;;10441097;28;20347;-75
2022/02/24 03:49:38;;;;;;;4.97;2.80;;;4.20;33.70;;;;;;10456292;28;20228;-74
2022/02/24 03:54:44;;;;;;;3.37;2.73;;;4.20;33.60;;;;;;10456861;28;20289;-74
2022/02/24 03:59:48;;;;;;;2.93;2.47;;;4.20;33.90;;;;;;10450140;28;20221;-75
2022/02/24 04:04:51;;;;;;;5.00;3.13;;;4.40;33.90;;;;;;10452359;28;20255;-74
2022/02/24 04:09:57;;;;;;;3.23;2.57;;;4.30;33.80;;;;;;10452538;28;20507;-75
2022/02/24 04:15:01;;;;;;;5.80;3.20;;;4.30;34.00;;;;;;10449277;28;20517;-74
2022/02/24 04:20:05;;;;;;;4.37;2.70;;;4.30;33.80;;;;;;10459598;28;20294;-75
2022/02/24 04:25:11;;;;;;;3.83;2.93;;;4.30;33.80;;;;;;10461754;28;20245;-75
2022/02/24 04:30:15;;;;;;;5.43;2.53;;;4.30;34.00;;;;;;10455544;28;20284;-75
2022/02/24 04:35:18;;;;;;;3.50;2.80;;;4.30;33.80;;;;;;10463621;28;20251;-75
2022/02/24 04:40:23;;;;;;;3.63;2.60;;;4.30;33.90;;;;;;10460109;28;20240;-75
2022/02/24 04:45:27;;;;;;;3.70;2.90;;;4.30;34.00;;;;;;10460561;28;20624;-75
2022/02/24 04:50:31;;;;;;;5.27;2.53;;;4.20;33.90;;;;;;10437673;28;20225;-75
2022/02/24 04:55:36;;;;;;;2.60;2.40;;;4.10;34.00;;;;;;10455867;28;20225;-75
2022/02/24 05:00:40;;;;;;;3.83;2.67;;;4.10;34.30;;;;;;10458915;28;20233;-75
2022/02/24 05:05:44;;;;;;;6.17;2.70;;;4.10;34.20;;;;;;10459870;28;20237;-75
2022/02/24 05:10:49;;;;;;;4.67;2.97;;;4.10;34.10;;;;;;10457411;28;20595;-75
2022/02/24 05:15:53;;;;;;;3.40;3.10;;;4.10;34.00;;;;;;10448291;28;20235;-75
2022/02/24 05:20:58;;;;;;;5.63;3.90;;;4.00;33.80;;;;;;10446430;28;20952;-75
2022/02/24 05:26:02;;;;;;;5.47;3.80;;;3.90;34.10;;;;;;10447556;28;20307;-76
2022/02/24 05:31:06;;;;;;;3.90;3.50;;;3.80;35.10;;;;;;10451451;28;20613;-76
2022/02/24 05:36:09;;;;;;;4.47;3.30;;;3.70;34.30;;;;;;10455933;28;20291;-75
2022/02/24 05:41:14;;;;;;;4.53;3.20;;;3.70;34.60;;;;;;10455941;28;20229;-76
2022/02/24 05:46:19;;;;;;;4.93;3.67;;;3.70;35.00;;;;;;10455151;28;20244;-75
2022/02/24 05:51:22;;;;;;;3.80;3.33;;;3.70;34.60;;;;;;10448764;28;20240;-75
2022/02/24 05:56:28;;;;;;;4.60;3.47;;;3.70;34.70;;;;;;10454428;28;20390;-76
2022/02/24 06:01:31;;;;;;;4.40;3.13;;;3.70;35.10;;;;;;10455634;28;20278;-77
2022/02/24 06:06:35;;;;;;;6.67;3.30;;;3.70;34.90;;;;;;10457464;28;20233;-77
2022/02/24 06:11:39;;;;;;;4.67;3.10;;;3.60;34.90;;;;;;10459920;28;20601;-79
2022/02/24 06:16:42;;;;;;;5.33;3.53;;;3.70;35.70;;;;;;10459574;28;20236;-79
2022/02/24 06:21:48;;;;;;;4.80;3.27;;;3.70;35.50;;;;;;10461463;28;20271;-79
2022/02/24 06:26:52;;;;;;;4.90;3.20;;;3.80;35.60;;;;;;10462929;28;20270;-79
2022/02/24 06:31:55;;;;;;;5.73;3.67;;;3.80;35.80;;;;;;10461596;28;20606;-78
2022/02/24 06:36:59;;;;;;;5.17;3.53;;;3.80;35.40;;;;;;10461920;28;20225;-79
2022/02/24 06:42:04;;;;;;;6.87;3.63;;;3.80;35.50;;;;;;10460753;28;20583;-79
2022/02/24 06:47:08;;;;;;;4.73;3.83;;;3.80;35.80;;;;;;10461328;28;20233;-79
2022/02/24 06:52:11;;;;;;;5.53;3.97;;;3.80;35.80;;;;;;10459606;28;20260;-79
2022/02/24 06:57:15;;;;;;;5.40;3.77;;;4.00;36.00;;;;;;10460151;28;20257;-79
2022/02/24 07:02:20;;;;;;;5.90;4.23;;;3.90;35.90;;;;;;10457324;28;20237;-78
2022/02/24 07:07:26;;;;;;;7.87;4.30;;;4.00;35.90;;;;;;10452449;28;20244;-78
2022/02/24 07:12:31;;;;;;;7.90;4.23;;;4.10;36.10;;;;;;10452675;28;20224;-78
2022/02/24 07:17:34;;;;;;;6.03;4.13;;;4.20;36.10;;;;;;10453717;28;20607;-79
2022/02/24 07:22:37;;;;;;;4.63;3.90;;;4.40;36.30;;;;;;10454583;28;20239;-79
2022/02/24 07:27:43;;;;;;;7.17;4.83;;;4.30;36.20;;;;;;10454404;28;20251;-79
2022/02/24 07:32:46;;;;;;;5.63;4.67;;;4.40;36.30;;;;;;10452785;28;20221;-78
2022/02/24 07:37:49;;;;;;;6.23;5.50;;;4.50;36.30;;;;;;10451694;28;20235;-78
2022/02/24 07:42:54;;;;;;;6.00;5.40;;;4.50;36.40;;;;;;10450645;28;20231;-78
2022/02/24 07:47:57;;;;;;;7.97;5.77;;;4.60;36.50;;;;;;10449815;28;20229;-79
2022/02/24 07:53:01;;;;;;;5.93;5.20;;;4.70;36.60;;;;;;10450151;28;20227;-80
2022/02/24 07:58:09;;;;;;;8.07;5.80;;;4.80;36.60;;;;;;10447638;28;20701;-79
2022/02/24 08:03:13;;;;;;;7.00;5.67;;;4.90;37.40;;;;;;10446582;28;20231;-78
2022/02/24 08:08:16;;;;;;;9.00;6.07;;;5.00;36.80;;;;;;10446293;28;20633;-78
2022/02/24 08:13:21;;;;;;;9.07;6.23;;;5.10;37.00;;;;;;10444246;28;20593;-79
2022/02/24 08:18:30;;;;;;;9.83;6.03;;;5.20;37.40;;;;;;10446710;28;20225;-81
2022/02/24 08:23:33;;;;;;;6.77;5.83;;;5.40;38.60;;;;;;10446142;28;20231;-81
2022/02/24 08:28:38;;;;;;;6.93;5.47;;;5.50;37.50;;;;;;10451726;28;20239;-82
2022/02/24 08:33:41;;;;;;;7.53;5.20;;;5.70;38.10;;;;;;10444910;28;20307;-82
2022/02/24 08:38:44;;;;;;;5.17;4.67;;;5.90;37.80;;;;;;10445393;28;20224;-79
2022/02/24 08:44:09;;;;;;;5.80;4.53;;;6.20;37.90;;;;;;10444557;28;20221;-81
2022/02/24 08:49:25;;;;;;;6.80;5.57;;;6.50;38.50;;;;;;10447610;28;20231;-82
2022/02/24 08:54:29;;;;;;;4.67;4.27;;;6.70;39.40;;;;;;10447363;28;20232;-79
2022/02/24 08:59:36;;;;;;;5.40;4.00;;;6.90;38.30;;;;;;10444258;28;20351;-82
2022/02/24 09:04:39;;;;;;;4.40;4.00;;;7.20;39.10;;;;;;10451037;28;20233;-81
2022/02/24 09:09:43;;;;;;;4.27;3.87;;;7.40;38.80;;;;;;10446508;28;20252;-81
2022/02/24 09:14:48;;;;;;;4.87;3.80;;;7.70;39.00;;;;;;10445527;28;20239;-82
2022/02/24 09:19:51;;;;;;;5.70;4.03;;;8.00;39.20;;;;;;10459103;28;20229;-82
2022/02/24 09:24:55;;;;;;;4.07;3.67;;;8.20;39.00;;;;;;10475432;28;20236;-82
2022/02/24 09:29:59;;;;;;;3.80;3.50;;;8.50;39.00;;;;;;10488397;28;20225;-82
2022/02/24 09:35:03;;;;;;;4.90;4.47;;;8.80;39.10;;;;;;10460946;28;20231;-82
2022/02/24 09:40:09;;;;;;;7.20;5.97;;;9.10;38.70;;;;;;10459927;28;20232;-82
2022/02/24 09:45:34;;;;;;;3.70;2.70;;;9.40;38.90;;;;;;10459385;28;20597;-80
2022/02/24 09:50:39;;;;;;;3.30;2.30;;;9.80;38.60;;;;;;10459820;28;20305;-81
2022/02/24 09:55:42;;;;;;;2.77;2.57;;;10.10;37.30;;;;;;10458834;28;20252;-80
2022/02/24 10:00:48;;;;;;;2.70;2.50;;;10.50;37.30;;;;;;10459769;28;20221;-81
2022/02/24 10:05:58;;;;;;;2.53;2.33;;;10.80;37.10;;;;;;10450797;28;20270;-82
2022/02/24 10:11:03;;;;;;;3.10;2.40;;;11.10;36.80;;;;;;10461096;28;20666;-82
2022/02/24 10:16:08;;;;;;;3.40;2.20;;;11.40;37.10;;;;;;10463915;28;20240;-83
2022/02/24 10:21:18;;;;;;;2.47;2.13;;;11.60;36.00;;;;;;10451124;28;20239;-83
2022/02/24 10:26:23;;;;;;;2.30;2.10;;;11.80;36.00;;;;;;10449489;28;20308;-83
2022/02/24 10:31:33;;;;;;;2.60;2.40;;;12.00;36.00;;;;;;10457778;28;20239;-83
2022/02/24 10:36:38;;;;;;;2.50;2.30;;;12.20;35.80;;;;;;10472769;28;20233;-83
2022/02/24 10:41:43;;;;;;;3.43;2.33;;;12.50;36.10;;;;;;10463724;28;20228;-83
2022/02/24 10:46:49;;;;;;;2.83;2.50;;;12.70;35.90;;;;;;10476184;28;20257;-84
2022/02/24 10:52:09;;;;;;;2.90;2.70;;;13.00;35.70;;;;;;10463345;28;20221;-83
2022/02/24 10:57:20;;;;;;;2.53;2.27;;;13.20;35.40;;;;;;10462510;28;20372;-84
2022/02/24 11:02:28;;;;;;;2.97;2.30;;;13.50;35.20;;;;;;10463817;28;20606;-84
2022/02/24 11:07:32;;;;;;;2.50;2.30;;;13.90;35.50;;;;;;10461349;28;20224;-83
2022/02/24 11:12:36;;;;;;;2.27;2.10;;;13.90;34.90;;;;;;10455948;28;20695;-83
2022/02/24 11:17:40;;;;;;;2.37;2.10;;;14.10;34.70;;;;;;10453979;28;20228;-83
2022/02/24 11:22:44;;;;;;;2.23;2.00;;;14.30;34.50;;;;;;10453475;28;20232;-82
2022/02/24 11:27:52;;;;;;;1.90;1.80;;;14.50;34.70;;;;;;10466396;28;20239;-83
2022/02/24 11:33:01;;;;;;;2.30;2.10;;;14.60;33.70;;;;;;10454883;28;20320;-82
2022/02/24 11:38:12;;;;;;;2.17;1.93;;;14.90;34.00;;;;;;10459149;28;20220;-83
2022/02/24 11:43:22;;;;;;;2.27;1.90;;;15.00;33.40;;;;;;10461290;28;20233;-83
2022/02/24 11:48:34;;;;;;;4.40;2.00;;;15.20;33.40;;;;;;10468811;28;20255;-83
2022/02/24 11:53:38;;;;;;;1.73;1.50;;;15.40;32.50;;;;;;10459474;28;20224;-83
2022/02/24 11:58:51;;;;;;;1.70;1.60;;;15.50;32.50;;;;;;10470956;28;20957;-83
2022/02/24 12:04:01;;;;;;;2.70;1.60;;;15.60;32.60;;;;;;10448947;28;20589;-82
2022/02/24 12:09:08;;;;;;;1.50;1.40;;;15.70;32.10;;;;;;10453696;28;20232;-82
2022/02/24 12:14:40;;;;;;;1.90;1.40;;;15.90;32.90;;;;;;10456244;28;20248;-79
2022/02/24 12:19:54;;;;;;;1.40;1.30;;;16.00;31.80;;;;;;10449911;28;20217;-80
2022/02/24 12:25:06;;;;;;;1.50;1.40;;;16.20;31.40;;;;;;10454025;28;20228;-79
2022/02/24 12:30:18;;;;;;;1.60;1.50;;;16.30;31.20;;;;;;10442052;28;20232;-81
2022/02/24 12:35:24;;;;;;;3.57;2.97;;;16.40;31.00;;;;;;10443278;28;20232;-79
2022/02/24 12:40:31;;;;;;;3.10;2.43;;;16.40;31.40;;;;;;10446259;28;20225;-81
2022/02/24 12:45:35;;;;;;;3.57;3.17;;;16.50;31.10;;;;;;10446721;28;20231;-82
2022/02/24 12:50:46;;;;;;;3.03;1.90;;;16.60;31.50;;;;;;10458287;28;20267;-80
2022/02/24 12:55:51;;;;;;;3.57;2.70;;;16.70;30.00;;;;;;10451693;28;20319;-79
2022/02/24 13:00:57;;;;;;;2.40;2.20;;;16.80;30.70;;;;;;10451427;28;20228;-81
2022/02/24 13:06:03;;;;;;;2.87;2.33;;;16.90;30.20;;;;;;10464747;28;20235;-78
2022/02/24 13:11:07;;;;;;;2.67;2.33;;;16.90;30.00;;;;;;10454561;28;20225;-81
2022/02/24 13:16:16;;;;;;;1.90;1.80;;;16.90;30.00;;;;;;10447664;28;20233;-80
2022/02/24 13:21:25;;;;;;;2.57;1.80;;;16.90;30.00;;;;;;10450083;28;20575;-80
2022/02/24 13:26:33;;;;;;;4.90;1.70;;;16.90;29.30;;;;;;10453905;28;20619;-79
2022/02/24 13:32:13;;;;;;;3.23;1.60;;;17.00;29.20;;;;;;10446871;28;20217;-80
2022/02/24 13:37:18;;;;;;;1.40;1.30;;;17.00;29.20;;;;;;10455721;28;20236;-79
2022/02/24 13:42:22;;;;;;;1.73;1.63;;;17.10;29.70;;;;;;10451183;28;20221;-81
2022/02/24 13:47:25;;;;;;;3.80;1.70;;;17.20;29.70;;;;;;10449248;28;20309;-82
2022/02/24 13:52:35;;;;;;;1.70;1.40;;;17.20;29.50;;;;;;10456085;28;20339;-80
2022/02/24 13:57:50;;;;;;;1.50;1.40;;;17.30;28.60;;;;;;10456798;28;20799;-82
2022/02/24 14:02:54;;;;;;;2.07;1.50;;;17.30;27.30;;;;;;10454292;28;20230;-81
2022/02/24 14:08:04;;;;;;;2.30;1.23;;;17.40;28.60;;;;;;10455459;28;20232;-81
2022/02/24 14:13:07;;;;;;;1.60;1.20;;;17.40;26.90;;;;;;10453620;28;21132;-81
2022/02/24 14:18:10;;;;;;;2.23;1.20;;;17.40;27.50;;;;;;10456381;28;20315;-81
2022/02/24 14:23:16;;;;;;;1.53;1.17;;;17.30;27.20;;;;;;10453751;28;20697;-81
2022/02/24 14:28:20;;;;;;;1.47;1.27;;;17.20;26.30;;;;;;10453926;28;20236;-80
2022/02/24 14:33:23;;;;;;;3.50;1.30;;;17.20;26.90;;;;;;10467342;28;20224;-81
2022/02/24 14:38:28;;;;;;;1.43;1.20;;;17.20;27.00;;;;;;10454455;28;20228;-81
2022/02/24 14:43:32;;;;;;;2.20;1.20;;;17.10;26.40;;;;;;10455243;28;20641;-80
2022/02/24 14:48:36;;;;;;;2.67;1.70;;;17.10;27.10;;;;;;10456593;28;20232;-82
2022/02/24 14:53:40;;;;;;;1.60;1.50;;;17.10;27.50;;;;;;10455780;28;20335;-81
2022/02/24 14:58:45;;;;;;;2.07;1.53;;;17.00;26.00;;;;;;10461034;28;20308;-81
2022/02/24 15:03:48;;;;;;;1.77;1.40;;;16.90;26.10;;;;;;10456190;28;20217;-80
2022/02/24 15:08:53;;;;;;;2.23;1.40;;;16.80;26.30;;;;;;10454257;28;20231;-80
2022/02/24 15:13:57;;;;;;;1.73;1.50;;;16.70;25.80;;;;;;10448910;28;20228;-80
2022/02/24 15:19:00;;;;;;;2.30;1.70;;;16.70;26.00;;;;;;10454698;28;20591;-80
2022/02/24 15:24:05;;;;;;;3.87;2.30;;;16.60;26.20;;;;;;10451083;28;20209;-80
2022/02/24 15:29:08;;;;;;;3.37;2.00;;;16.50;25.80;;;;;;10459650;28;20220;-80
2022/02/24 15:34:12;;;;;;;3.70;3.20;;;16.50;26.20;;;;;;10452274;28;20229;-81
2022/02/24 15:39:16;;;;;;;4.03;2.60;;;16.40;26.00;;;;;;10462676;28;20224;-82
2022/02/24 15:44:24;;;;;;;1.63;1.50;;;16.30;25.70;;;;;;10453726;28;20228;-81
2022/02/24 15:49:27;;;;;;;2.47;2.03;;;16.20;25.80;;;;;;10456376;28;20251;-81
2022/02/24 15:54:32;;;;;;;2.13;1.83;;;16.20;26.00;;;;;;10464678;28;20223;-82
2022/02/24 15:59:35;;;;;;;4.83;2.40;;;16.00;25.40;;;;;;10455367;28;20275;-82
2022/02/24 16:04:38;;;;;;;3.00;2.27;;;16.00;25.90;;;;;;10453932;28;20311;-81
2022/02/24 16:09:43;;;;;;;3.10;2.10;;;15.90;26.40;;;;;;10467009;28;20217;-82
2022/02/24 16:14:46;;;;;;;2.93;1.90;;;15.80;25.70;;;;;;10467820;28;20724;-82
2022/02/24 16:19:49;;;;;;;3.07;1.73;;;15.80;26.20;;;;;;10473084;28;20256;-81
2022/02/24 16:24:55;;;;;;;2.90;2.00;;;15.70;26.00;;;;;;10462251;28;20224;-82
2022/02/24 16:30:00;;;;;;;3.53;1.90;;;15.60;25.80;;;;;;10466271;28;20635;-80
2022/02/24 16:35:04;;;;;;;7.37;5.93;;;15.50;26.10;;;;;;10476181;28;20221;-81
2022/02/24 16:40:12;;;;;;;4.63;3.67;;;15.40;26.60;;;;;;10465269;28;20231;-81
2022/02/24 16:45:15;;;;;;;2.90;2.27;;;15.40;25.90;;;;;;10465706;28;20224;-82
2022/02/24 16:50:18;;;;;;;2.87;2.20;;;15.30;26.20;;;;;;10464155;28;20234;-82
2022/02/24 16:55:23;;;;;;;3.60;2.30;;;15.30;26.30;;;;;;10472153;28;20236;-82
2022/02/24 17:00:27;;;;;;;5.83;3.87;;;15.20;26.20;;;;;;10475820;28;20217;-81
2022/02/24 17:05:32;;;;;;;5.43;2.30;;;15.10;27.00;;;;;;10474473;28;20232;-81
2022/02/24 17:10:41;;;;;;;3.60;2.30;;;15.00;26.40;;;;;;10465586;28;20231;-81
2022/02/24 17:15:46;;;;;;;3.13;2.30;;;14.90;26.50;;;;;;10473648;28;20229;-80
2022/02/24 17:20:49;;;;;;;3.67;2.17;;;14.80;26.70;;;;;;10471897;28;20260;-81
2022/02/24 17:25:54;;;;;;;2.27;1.87;;;14.80;26.70;;;;;;10461846;28;20225;-80
2022/02/24 17:30:57;;;;;;;2.73;1.60;;;14.60;26.60;;;;;;10462890;28;20231;-80
2022/02/24 17:36:04;;;;;;;3.60;2.00;;;14.50;27.50;;;;;;10468119;28;20466;-80
2022/02/24 17:41:08;;;;;;;3.27;2.20;;;14.40;27.00;;;;;;10466058;28;20224;-80
2022/02/24 17:46:12;;;;;;;3.70;3.20;;;14.40;27.00;;;;;;10463576;28;20238;-80
2022/02/24 17:51:18;;;;;;;4.47;2.00;;;14.30;26.90;;;;;;10468068;28;20229;-81
2022/02/24 17:56:22;;;;;;;3.37;1.97;;;14.30;27.00;;;;;;10461179;28;20221;-81
2022/02/24 18:01:26;;;;;;;3.97;1.87;;;14.30;27.00;;;;;;10465243;28;20231;-81
2022/02/24 18:06:32;;;;;;;4.60;2.00;;;14.30;27.10;;;;;;10481481;28;20589;-79
2022/02/24 18:11:36;;;;;;;3.03;1.80;;;14.20;27.10;;;;;;10458470;28;20232;-78
2022/02/24 18:16:41;;;;;;;2.50;1.70;;;14.20;27.00;;;;;;10458183;28;20727;-79
2022/02/24 18:21:49;;;;;;;3.53;2.03;;;14.20;27.20;;;;;;10459853;28;20653;-79
2022/02/24 18:26:55;;;;;;;3.50;2.30;;;14.20;27.20;;;;;;10457866;28;20228;-79
2022/02/24 18:31:59;;;;;;;5.00;2.60;;;14.20;27.20;;;;;;10468128;28;20225;-79
2022/02/24 18:37:02;;;;;;;5.70;3.17;;;14.20;27.20;;;;;;10453847;28;20220;-80
2022/02/24 18:42:09;;;;;;;3.93;2.23;;;14.20;27.30;;;;;;10470223;28;20223;-79
2022/02/24 18:47:12;;;;;;;3.47;2.30;;;14.20;27.20;;;;;;10453248;28;20243;-80
2022/02/24 18:52:15;;;;;;;4.63;2.70;;;14.20;27.20;;;;;;10475128;28;20229;-80
2022/02/24 18:57:20;;;;;;;5.33;2.70;;;14.10;27.20;;;;;;10466283;28;20233;-80
2022/02/24 19:02:23;;;;;;;3.20;2.10;;;14.10;27.20;;;;;;10462688;28;21608;-79
2022/02/24 19:07:27;;;;;;;5.10;2.03;;;14.00;27.30;;;;;;10469164;28;20271;-79
2022/02/24 19:12:31;;;;;;;3.23;1.60;;;13.90;27.40;;;;;;10455163;28;20246;-79
2022/02/24 19:17:34;;;;;;;2.80;1.60;;;13.90;27.50;;;;;;10463058;28;20224;-78
2022/02/24 19:22:40;;;;;;;3.00;1.73;;;13.80;27.50;;;;;;10463045;28;20221;-80
2022/02/24 19:27:45;;;;;;;4.63;1.90;;;13.80;27.60;;;;;;10473770;28;20225;-79
2022/02/24 19:32:48;;;;;;;3.73;2.07;;;13.80;27.60;;;;;;10465090;28;20233;-79
2022/02/24 19:37:51;;;;;;;4.77;2.30;;;13.80;27.70;;;;;;10438051;28;20308;-80
2022/02/24 19:42:57;;;;;;;3.77;2.13;;;13.90;27.80;;;;;;10464139;28;20278;-78
2022/02/24 19:48:00;;;;;;;4.13;1.90;;;13.80;27.70;;;;;;10463895;28;20244;-80
2022/02/24 19:53:04;;;;;;;4.03;2.17;;;13.80;27.70;;;;;;10438802;28;20224;-82
2022/02/24 19:58:12;;;;;;;5.47;2.60;;;13.70;27.80;;;;;;10438002;28;20232;-79
2022/02/24 20:03:15;;;;;;;4.73;2.20;;;13.70;27.80;;;;;;10446603;28;20225;-79
2022/02/24 20:08:19;;;;;;;2.93;1.97;;;13.60;27.80;;;;;;10448780;28;20232;-79
2022/02/24 20:13:23;;;;;;;4.90;2.37;;;13.60;27.90;;;;;;10442769;28;20237;-79
2022/02/24 20:18:27;;;;;;;6.13;2.37;;;13.50;27.90;;;;;;10451205;28;21037;-78
2022/02/24 20:23:30;;;;;;;5.97;2.60;;;13.40;28.00;;;;;;10453646;28;20303;-78
2022/02/24 20:28:36;;;;;;;4.43;2.17;;;13.30;28.10;;;;;;10445616;28;20239;-79
2022/02/24 20:33:39;;;;;;;4.17;2.20;;;13.30;28.20;;;;;;10449094;28;20235;-78
2022/02/24 20:38:43;;;;;;;4.50;2.17;;;13.20;28.30;;;;;;10440636;28;20229;-79
2022/02/24 20:43:48;;;;;;;6.00;2.27;;;13.10;28.40;;;;;;10442248;28;20229;-78
2022/02/24 20:48:51;;;;;;;5.27;1.90;;;13.00;28.50;;;;;;10446462;28;20237;-77
2022/02/24 20:53:56;;;;;;;7.47;2.43;;;13.00;28.50;;;;;;10447580;28;20279;-78
2022/02/24 20:59:04;;;;;;;3.40;2.07;;;13.00;28.70;;;;;;10449292;28;20237;-78
2022/02/24 21:04:09;;;;;;;4.33;2.33;;;12.90;28.70;;;;;;10454356;28;20231;-79
2022/02/24 21:09:23;;;;;;;4.43;2.13;;;12.90;28.70;;;;;;10454521;28;20239;-77
2022/02/24 21:14:28;;;;;;;4.70;2.57;;;12.80;29.00;;;;;;10458094;28;20287;-77
2022/02/24 21:19:31;;;;;;;4.77;2.30;;;12.80;28.90;;;;;;10459196;28;20255;-78
2022/02/24 21:24:36;;;;;;;6.17;2.47;;;12.80;29.00;;;;;;10448302;28;20305;-78
2022/02/24 21:29:40;;;;;;;4.47;2.10;;;12.70;28.90;;;;;;10458803;28;20221;-78
2022/02/24 21:34:44;;;;;;;9.07;2.50;;;12.70;29.10;;;;;;10458330;28;20313;-78
2022/02/24 21:39:51;;;;;;;4.47;2.40;;;12.70;29.10;;;;;;10460446;28;20225;-79
2022/02/24 21:44:57;;;;;;;4.00;2.00;;;12.70;29.40;;;;;;10459763;28;20225;-81
2022/02/24 21:50:01;;;;;;;4.90;1.97;;;12.60;29.20;;;;;;10452060;28;20311;-79
2022/02/24 21:55:09;;;;;;;4.33;2.10;;;12.60;29.20;;;;;;10461403;28;20566;-77
2022/02/24 22:00:15;;;;;;;4.73;2.00;;;12.60;29.30;;;;;;10464101;28;20247;-78
2022/02/24 22:05:20;;;;;;;3.60;2.13;;;12.50;29.40;;;;;;10463961;28;20296;-79
2022/02/24 22:10:24;;;;;;;5.23;2.83;;;12.50;29.40;;;;;;10464870;28;20308;-78
2022/02/24 22:15:30;;;;;;;6.23;2.57;;;12.50;29.50;;;;;;10464642;28;20253;-78
2022/02/24 22:20:35;;;;;;;3.77;2.10;;;12.50;29.80;;;;;;10463177;28;20293;-78
2022/02/24 22:25:38;;;;;;;5.07;2.47;;;12.50;29.60;;;;;;10462237;28;20592;-78
2022/02/24 22:30:43;;;;;;;1.70;1.00;;;12.60;29.70;;;;;;10462162;28;20247;-78
2022/02/24 22:35:49;;;;;;;1.17;1.10;;;12.60;30.00;;;;;;10458091;28;20233;-78
2022/02/24 22:40:56;;;;;;;0.80;0.80;;;12.20;29.30;;;;;;10460102;28;20652;-78
2022/02/24 22:46:02;;;;;;;1.43;0.90;;;11.60;29.40;;;;;;10459421;28;20964;-78
2022/02/24 22:51:05;;;;;;;0.63;0.60;;;11.00;29.60;;;;;;10459067;28;20228;-78
2022/02/24 22:56:09;;;;;;;0.63;0.63;;;10.50;29.70;;;;;;10460702;28;20228;-78
2022/02/24 23:01:26;;;;;;;1.80;0.80;;;10.10;30.20;;;;;;10458471;28;20235;-77
2022/02/24 23:06:30;;;;;;;1.27;0.70;;;9.80;33.10;;;;;;10460698;28;20298;-78
2022/02/24 23:11:34;;;;;;;0.60;0.60;;;9.40;31.30;;;;;;10461078;28;20709;-78
2022/02/24 23:16:39;;;;;;;0.57;0.40;;;9.10;31.40;;;;;;10458684;28;20225;-77
2022/02/24 23:21:43;;;;;;;0.60;0.60;;;8.80;31.60;;;;;;10457819;28;20223;-77
2022/02/24 23:26:47;;;;;;;0.77;0.77;;;8.60;31.60;;;;;;10457401;28;20796;-77
2022/02/24 23:31:52;;;;;;;0.50;0.50;;;8.50;32.00;;;;;;10457368;28;20227;-77
2022/02/24 23:36:55;;;;;;;0.93;0.40;;;8.40;32.10;;;;;;10456539;28;20713;-77
2022/02/24 23:41:58;;;;;;;0.47;0.40;;;8.20;32.00;;;;;;10457596;28;20228;-77
2022/02/24 23:47:05;;;;;;;0.50;0.50;;;8.10;32.50;;;;;;10458263;28;20313;-77
2022/02/24 23:52:10;;;;;;;0.50;0.50;;;7.90;33.10;;;;;;10456661;28;20686;-77
2022/02/24 23:57:14;;;;;;;0.50;0.50;;;7.80;33.20;;;;;;10456091;28;20264;-77
